Latest Coastal Weather Observations for Cape Nelson

IDV60701

Issued at 4:25 pm EST Thursday 21 August 2014 (issued every 10 minutes, with the page automatically refreshed every 10 minutes)

About coastal observations | Map of coastal stations | Coastal observations for VIC | Marine services | Other Formats
Station Details ID: 090184 Name: CAPE NELSON LIGHTHOUSE Lat: -38.43 Lon: 141.54 Height: 45.4 m
Data from the previous 72 hours. | See also: Recent months at Cape Nelson
Date/Time
EST
Temp

°C
Wind Pressure Rain
since 9am
mm
Weather Cloud Vis
km
Sea
Height
m
Swell
Dir
 
Speed
knots
Gust
knots
hPa Trend Height
m
Period
s
Dir
21/04:00pm 12.8 E 7 9 1026.5 - 0.0 - - - - - - -
21/03:30pm 13.3 E 8 10 1026.5 - 0.0 - - - - - - -
21/03:00pm 13.3 E 7 10 1026.6 - 0.0 - - - - - - -
21/02:30pm 13.3 E 7 9 1026.6 - 0.0 - - - - - - -
21/02:00pm 13.4 E 8 10 1026.7 - 0.0 - - - - - - -
21/01:30pm 13.5 E 7 9 1027.2 - 0.0 - - - - - - -
21/01:00pm 13.4 E 7 9 1027.5 - 0.0 - - - - - - -
21/12:30pm 13.7 ENE 7 11 1027.9 - 0.0 - - - - - - -
21/12:00pm 13.8 E 7 11 1028.3 - 0.0 - - - - - - -
21/11:30am 13.0 ENE 7 9 1028.5 - 0.0 - - - - - - -
21/11:00am 12.3 ENE 5 8 1028.9 - 0.0 - - - - - - -
21/10:30am 11.7 E 3 5 1028.9 - 0.0 - - - - - - -
21/10:00am 11.0 ENE 4 7 1029.1 - 0.0 - - - - - - -
21/09:30am 11.3 NNE 4 5 1029.0 - 0.0 - - - - - - -
21/09:00am 10.3 NE 3 4 1028.9 - 0.0 - - - - - - -
21/08:30am 9.1 NNE 3 5 1028.9 - 0.0 - - - - - - -
21/08:00am 8.3 NNE 5 5 1028.8 - 0.0 - - - - - - -
21/07:30am 7.8 N 5 6 1028.6 - 0.0 - - - - - - -
21/07:00am 8.2 NNE 4 5 1028.3 - 0.0 - - - - - - -
21/06:30am 8.6 NNE 5 5 1028.0 - 0.0 - - - - - - -
21/06:00am 8.5 NNE 4 5 1028.0 - 0.0 - - - - - - -
21/05:30am 8.2 NNE 5 6 1028.0 - 0.0 - - - - - - -
21/05:00am 8.5 NE 6 8 1027.9 - 0.0 - - - - - - -
21/04:30am 9.2 NE 6 8 1027.8 - 0.0 - - - - - - -
21/04:00am 9.7 NE 9 14 1028.0 - 0.0 - - - - - - -
21/03:30am 9.6 NNE 6 8 1028.0 - 0.0 - - - - - - -
21/03:00am 10.7 NE 9 11 1028.0 - 0.0 - - - - - - -
21/02:30am 10.9 ESE 10 14 1028.2 - 0.0 - - - - - - -
21/02:00am 10.7 ESE 10 18 1028.3 - 0.0 - - - - - - -
21/01:30am 11.1 E 12 15 1028.3 - 0.0 - - - - - - -
21/01:00am 11.1 E 13 16 1028.4 - 0.0 - - - - - - -
21/12:30am 10.7 E 8 12 1028.4 - 0.0 - - - - - - -
21/12:00am 11.4 ENE 9 12 1028.4 - 0.0 - - - - - - -
 
Date/Time
EST
Temp

°C
Wind Pressure Rain
since 9am
mm
Weather Cloud Vis
km
Sea
Height
m
Swell
Dir
 
Speed
knots
Gust
knots
hPa Trend Height
m
Period
s
Dir
20/11:30pm 11.9 ESE 11 17 1028.3 - 0.0 - - - - - - -
20/11:00pm 11.6 ESE 9 16 1028.4 - 0.0 - - - - - - -
20/10:30pm 11.7 ESE 9 14 1028.5 - 0.0 - - - - - - -
20/10:00pm 11.2 E 12 15 1028.5 - 0.0 - - - - - - -
20/09:30pm 11.3 ESE 7 10 1028.5 - 0.0 - - - - - - -
20/09:00pm 11.1 ESE 7 12 1028.6 - 0.0 - - - - - - -
20/08:30pm 10.8 E 7 8 1028.6 - 0.0 - - - - - - -
20/08:00pm 10.8 ESE 5 8 1028.6 - 0.0 - - - - - - -
20/07:30pm 10.6 ESE 3 5 1028.6 - 0.0 - - - - - - -
20/07:00pm 11.0 E 5 8 1028.7 - 0.0 - - - - - - -
20/06:30pm 10.7 SE 6 8 1028.6 - 0.0 - - - - - - -
20/06:00pm 10.7 E 7 9 1028.4 - 0.0 - - - - - - -
20/05:30pm 11.4 SSE 8 14 1028.2 - 0.0 - - - - - - -
20/05:00pm 11.4 S 5 8 1028.1 - 0.0 - - - - - - -
20/04:30pm 11.1 S 6 11 1027.9 - 0.0 - - - - - - -
20/04:00pm 12.6 SE 6 8 1027.8 - 0.0 - - - - - - -
20/03:30pm 13.1 SSE 8 10 1027.7 - 0.0 - - - - - - -
20/03:00pm 12.6 ESE 5 9 1027.6 - 0.0 - - - - - - -
20/02:30pm 13.3 ESE 6 8 1027.5 - 0.0 - - - - - - -
20/02:00pm 13.7 ESE 6 9 1027.5 - 0.0 - - - - - - -
20/01:30pm 13.5 ESE 7 10 1027.7 - 0.0 - - - - - - -
20/01:00pm 13.4 ESE 7 10 1027.9 - 0.0 - - - - - - -
20/12:30pm 13.7 ESE 7 10 1028.2 - 0.0 - - - - - - -
20/12:00pm 13.3 ESE 7 10 1028.4 - 0.0 - - - - - - -
20/11:30am 12.8 SE 9 12 1028.6 - 0.0 - - - - - - -
20/11:00am 13.0 SE 11 14 1028.6 - 0.0 - - - - - - -
20/10:30am 12.7 SE 9 12 1028.5 - 0.0 - - - - - - -
20/10:00am 12.3 SSE 11 14 1028.5 - 0.0 - - - - - - -
20/09:30am 11.6 ESE 7 9 1028.3 - 0.0 - - - - - - -
20/09:00am 11.7 SSE 10 16 1028.1 - 0.6 - - - - - - -
20/08:30am 11.3 SE 9 12 1027.9 - 0.6 - - - - - - -
20/08:00am 10.6 S 10 14 1027.6 - 0.6 - - - - - - -
20/07:30am 10.6 SSE 11 16 1027.4 - 0.6 - - - - - - -
20/07:00am 10.7 SSE 9 13 1027.1 - 0.6 - - - - - - -
20/06:30am 11.1 SSE 10 13 1026.8 - 0.6 - - - - - - -
20/06:00am 11.0 SSE 9 13 1026.7 - 0.6 - - - - - - -
20/05:30am 11.2 SSE 10 15 1026.5 - 0.6 - - - - - - -
20/05:00am 11.1 SSE 11 16 1026.4 - 0.6 - - - - - - -
20/04:30am 11.3 SSE 10 13 1026.2 - 0.6 - - - - - - -
20/04:00am 11.2 SSE 9 12 1026.3 - 0.6 - - - - - - -
20/03:30am 11.1 SSE 8 10 1026.3 - 0.6 - - - - - - -
20/03:00am 10.9 SSE 5 9 1026.5 - 0.6 - - - - - - -
20/02:30am 10.6 S 7 9 1026.7 - 0.6 - - - - - - -
20/02:00am 10.2 SSE 5 9 1026.7 - 0.6 - - - - - - -
20/01:30am 9.9 E 3 7 1026.9 - 0.6 - - - - - - -
20/01:00am 10.0 E 6 9 1026.9 - 0.6 - - - - - - -
20/12:30am 9.8 SSE 9 13 1027.0 - 0.6 - - - - - - -
20/12:00am 9.9 S 9 12 1027.0 - 0.6 Recent precip. - - - - - -
 
Date/Time
EST
Temp

°C
Wind Pressure Rain
since 9am
mm
Weather Cloud Vis
km
Sea
Height
m
Swell
Dir
 
Speed
knots
Gust
knots
hPa Trend Height
m
Period
s
Dir
19/11:30pm 10.1 S 9 13 1027.1 - 0.6 - - - - - - -
19/11:00pm 9.7 SE 1 4 1027.1 - 0.2 - - - - - - -
19/10:30pm 9.7 CALM 0 0 1027.2 - 0.2 - - - - - - -
19/10:00pm 10.4 ESE 3 5 1027.2 - 0.2 - - - - - - -
19/09:30pm 10.0 SE 5 7 1027.2 - 0.2 - - - - - - -
19/09:00pm 10.0 SSE 6 8 1027.2 - 0.2 Recent precip. - - - - - -
19/08:30pm 9.8 S 11 15 1027.1 - 0.2 - - - - - - -
19/08:00pm 10.2 S 9 13 1027.0 - 0.0 - - - - - - -
19/07:30pm 10.3 S 9 13 1026.9 - 0.0 - - - - - - -
19/07:00pm 9.9 ESE 3 5 1026.7 - 0.0 - - - - - - -
19/06:30pm 10.7 SSE 6 10 1026.4 - 0.0 - - - - - - -
19/06:00pm 10.8 E 5 8 1026.2 - 0.0 - - - - - - -
19/05:30pm 10.9 NE 4 5 1025.9 - 0.0 - - - - - - -
19/05:00pm 11.5 S 5 7 1025.7 - 0.0 - - - - - - -
19/04:30pm 11.7 S 6 9 1025.7 - 0.0 - - - - - - -
19/04:00pm 11.9 S 6 10 1025.6 - 0.0 - - - - - - -
19/03:30pm 12.3 SE 6 9 1025.7 - 0.0 - - - - - - -
19/03:00pm 12.8 SE 6 8 1025.7 - 0.0 - - - - - - -
19/02:30pm 12.7 SE 6 9 1025.5 - 0.0 - - - - - - -
19/02:00pm 12.9 SE 6 9 1025.5 - 0.0 - - - - - - -
19/01:30pm 13.0 ESE 6 9 1025.8 - 0.0 - - - - - - -
19/01:00pm 13.0 ESE 6 8 1026.0 - 0.0 - - - - - - -
19/12:30pm 12.9 ESE 6 8 1026.3 - 0.0 - - - - - - -
19/12:00pm 13.0 ESE 6 9 1026.8 - 0.0 - - - - - - -
19/11:30am 12.9 SE 5 7 1026.9 - 0.0 - - - - - - -
19/11:00am 12.4 SE 8 11 1027.1 - 0.0 - - - - - - -
19/10:30am 11.8 SSE 11 17 1027.0 - 0.0 - - - - - - -
19/10:00am 11.5 SSE 11 15 1026.9 - 0.0 - - - - - - -
19/09:30am 11.3 S 10 14 1026.7 - 0.0 - - - - - - -
19/09:00am 11.1 S 12 15 1026.6 - 0.4 - - - - - - -
19/08:30am 10.9 SSE 12 16 1026.4 - 0.4 - - - - - - -
19/08:00am 11.0 SSE 13 18 1026.1 - 0.4 - - - - - - -
19/07:30am 11.0 S 12 16 1025.7 - 0.4 - - - - - - -
19/07:00am 11.0 S 10 14 1025.5 - 0.4 - - - - - - -
19/06:30am 11.0 SSE 11 14 1025.3 - 0.4 - - - - - - -
19/06:00am 11.0 S 11 15 1025.2 - 0.4 - - - - - - -
19/05:30am 11.0 S 11 16 1025.1 - 0.4 - - - - - - -
19/05:00am 11.0 S 11 15 1024.9 - 0.4 - - - - - - -
19/04:30am 11.0 SSE 11 15 1024.8 - 0.4 - - - - - - -
19/04:00am 11.0 SSE 12 15 1024.7 - 0.4 - - - - - - -
19/03:30am 10.9 SSE 12 16 1024.8 - 0.4 - - - - - - -
19/03:00am 10.9 SSE 11 14 1024.8 - 0.4 - - - - - - -
19/02:30am 11.0 S 10 15 1025.1 - 0.4 - - - - - - -
19/02:00am 11.1 SSE 12 17 1025.1 - 0.4 - - - - - - -
19/01:30am 11.0 S 12 16 1025.1 - 0.4 - - - - - - -
19/01:00am 10.8 S 12 15 1025.2 - 0.4 - - - - - - -
19/12:30am 10.9 S 12 16 1025.3 - 0.4 - - - - - - -
19/12:00am 10.7 S 14 18 1025.4 - 0.4 - - - - - - -
 
Date/Time
EST
Temp

°C
Wind Pressure Rain
since 9am
mm
Weather Cloud Vis
km
Sea
Height
m
Swell
Dir
 
Speed
knots
Gust
knots
hPa Trend Height
m
Period
s
Dir
18/11:30pm 10.6 S 14 19 1025.3 - 0.4 - - - - - - -
18/11:00pm 10.4 SSE 15 19 1025.5 - 0.4 - - - - - - -
18/10:30pm 11.0 SSE 11 15 1025.6 - 0.2 - - - - - - -
18/10:00pm 10.9 SE 6 9 1025.5 - 0.2 - - - - - - -
18/09:30pm 10.9 SSE 14 20 1025.5 - 0.2 - - - - - - -
18/09:00pm 10.8 SSE 12 16 1025.3 - 0.2 - - - - - - -
18/08:30pm 10.6 S 13 16 1025.1 - 0.2 - - - - - - -
18/08:00pm 10.3 S 14 19 1024.9 - 0.2 - - - - - - -
18/07:30pm 10.0 SSE 14 19 1024.7 - 0.2 - - - - - - -
18/07:00pm 10.2 SSE 14 18 1024.4 - 0.2 - - - - - - -
18/06:30pm 10.5 SSE 13 20 1024.1 - 0.2 - - - - - - -
18/06:00pm 10.6 SSE 13 18 1023.9 - 0.2 - - - - - - -
18/05:30pm 10.3 SSE 14 19 1023.7 - 0.2 - - - - - - -
18/05:00pm 10.7 SSE 13 17 1023.5 - 0.2 - - - - - - -
18/04:30pm 10.7 SSE 7 10 1023.4 - 0.2 - - - - - - -

Other Formats:

Comma delimited format used in spreadsheet applications
http://www.bom.gov.au/fwo/IDV60701/IDV60701.94826.axf

JavaScript Object Notation format (JSON) in row-major order
http://www.bom.gov.au/fwo/IDV60701/IDV60701.94826.json